createdAt,value
2022-10-05T00:02:25.723Z,97.70
2022-10-05T00:04:59.971Z,97.70
2022-10-05T00:07:54.531Z,97.90
2022-10-05T00:10:22.414Z,97.90
2022-10-05T00:12:49.825Z,98.10
2022-10-05T00:15:22.008Z,98.30
2022-10-05T00:17:52.915Z,98.30
2022-10-05T00:20:37.122Z,98.30
2022-10-05T00:23:07.979Z,98.20
2022-10-05T00:25:35.322Z,98.40
2022-10-05T00:31:34.375Z,98.40
2022-10-05T00:34:03.253Z,98.60
2022-10-05T00:36:41.238Z,98.70
2022-10-05T00:39:09.010Z,98.70
2022-10-05T00:41:43.380Z,98.80
2022-10-05T00:44:41.772Z,98.80
2022-10-05T00:55:22.981Z,99.10
2022-10-05T00:58:45.913Z,99.30
2022-10-05T01:05:34.086Z,99.30
2022-10-05T01:31:36.610Z,99.80
2022-10-05T01:35:24.717Z,99.90
2022-10-05T01:40:12.903Z,99.90
2022-10-05T01:50:00.888Z,99.90
2022-10-05T01:52:28.889Z,99.90
2022-10-05T01:55:10.636Z,99.90
2022-10-05T01:58:16.524Z,99.90
2022-10-05T02:01:42.711Z,99.90
2022-10-05T02:04:59.897Z,99.90
2022-10-05T02:14:56.541Z,99.90
2022-10-05T02:24:00.575Z,99.90
2022-10-05T02:26:32.719Z,99.90
2022-10-05T02:29:09.787Z,99.90
2022-10-05T02:31:47.963Z,99.90
2022-10-05T02:37:54.694Z,99.90
2022-10-05T02:47:34.531Z,99.90
2022-10-05T02:53:24.748Z,99.90
2022-10-05T02:56:56.340Z,99.90
2022-10-05T03:00:29.226Z,99.90
2022-10-05T03:09:01.644Z,99.90
2022-10-05T03:20:13.191Z,99.90
2022-10-05T03:47:44.273Z,99.90
2022-10-05T03:50:57.546Z,99.90
2022-10-05T03:57:12.973Z,99.90
2022-10-05T04:00:05.242Z,99.90
2022-10-05T04:11:05.315Z,99.90
2022-10-05T04:16:47.703Z,99.90
2022-10-05T04:19:25.327Z,99.90
2022-10-05T04:22:05.958Z,99.90
2022-10-05T04:29:43.647Z,99.90
2022-10-05T04:32:19.686Z,99.90
2022-10-05T04:41:49.965Z,99.90
2022-10-05T04:45:13.418Z,99.90
2022-10-05T04:48:35.572Z,99.90
2022-10-05T04:51:23.426Z,99.90
2022-10-05T04:54:33.071Z,99.90
2022-10-05T05:13:07.438Z,99.90
2022-10-05T05:16:17.961Z,99.90
2022-10-05T05:19:06.223Z,99.90
2022-10-05T05:22:22.925Z,99.90
2022-10-05T05:36:55.364Z,99.90
2022-10-05T05:39:33.184Z,99.90
2022-10-05T05:42:30.254Z,99.90
2022-10-05T05:46:58.370Z,99.90
2022-10-05T05:49:36.974Z,99.90
2022-10-05T06:08:26.949Z,99.90
2022-10-05T06:18:00.606Z,99.90
2022-10-05T06:20:44.684Z,99.90
2022-10-05T06:29:22.151Z,99.90
2022-10-05T06:31:58.781Z,99.90
2022-10-05T06:35:12.191Z,99.90
2022-10-05T06:37:57.764Z,99.90
2022-10-05T06:41:10.254Z,99.90
2022-10-05T06:44:30.651Z,99.90
2022-10-05T07:00:25.366Z,99.90
2022-10-05T07:03:23.401Z,99.90
2022-10-05T07:06:02.547Z,99.90
2022-10-05T07:08:56.601Z,99.90
2022-10-05T07:11:32.547Z,99.90
2022-10-05T07:14:23.329Z,99.90
2022-10-05T07:17:11.232Z,99.90
2022-10-05T07:20:01.552Z,99.90
2022-10-05T07:22:33.481Z,99.90
2022-10-05T07:25:15.439Z,99.90
2022-10-05T07:27:55.132Z,99.90
2022-10-05T07:30:22.600Z,99.90
2022-10-05T07:33:06.254Z,99.90
2022-10-05T07:36:21.988Z,99.90
2022-10-05T07:39:01.182Z,99.90
2022-10-05T07:41:48.314Z,99.90
2022-10-05T07:44:25.909Z,99.90
2022-10-05T07:47:15.515Z,99.90
2022-10-05T07:50:11.322Z,99.90
2022-10-05T07:52:49.763Z,99.90
2022-10-05T07:55:22.580Z,99.90
2022-10-05T07:58:17.626Z,99.90
2022-10-05T08:00:58.866Z,99.90
2022-10-05T08:04:17.179Z,99.90
2022-10-05T08:06:47.968Z,99.90
2022-10-05T08:09:37.015Z,99.90
2022-10-05T08:12:41.490Z,99.90
2022-10-05T08:15:16.851Z,99.90
2022-10-05T08:18:03.040Z,99.90
2022-10-05T08:24:43.933Z,99.90
2022-10-05T08:27:23.497Z,99.90
2022-10-05T08:30:01.674Z,99.90
2022-10-05T08:32:43.427Z,99.90
2022-10-05T08:35:39.876Z,99.90
2022-10-05T08:38:18.135Z,99.90
2022-10-05T08:40:59.847Z,99.90
2022-10-05T08:44:04.702Z,99.90
2022-10-05T08:47:09.215Z,99.90
2022-10-05T08:50:13.559Z,99.90
2022-10-05T08:53:01.903Z,99.90
2022-10-05T08:55:40.675Z,99.90
2022-10-05T08:58:27.096Z,99.90
2022-10-05T09:01:04.645Z,99.90
2022-10-05T09:03:34.947Z,99.90
2022-10-05T09:06:33.580Z,99.90
2022-10-05T09:09:09.351Z,99.90
2022-10-05T09:11:39.061Z,99.90
2022-10-05T09:14:39.622Z,99.90
2022-10-05T09:17:37.080Z,99.90
2022-10-05T09:20:37.858Z,99.90
2022-10-05T09:23:40.658Z,99.90
2022-10-05T09:26:27.426Z,99.90
2022-10-05T09:29:28.020Z,99.90
2022-10-05T09:32:06.212Z,99.90
2022-10-05T09:34:59.719Z,99.90
2022-10-05T09:38:08.544Z,99.90
2022-10-05T09:41:34.536Z,99.80
2022-10-05T09:44:31.846Z,99.80
2022-10-05T09:47:29.785Z,99.70
2022-10-05T09:50:32.780Z,99.90
2022-10-05T09:53:13.237Z,99.50
2022-10-05T09:59:13.294Z,99.20
2022-10-05T10:02:07.858Z,98.90
2022-10-05T10:04:37.468Z,98.90
2022-10-05T10:07:21.163Z,99.10
2022-10-05T10:10:16.160Z,99.00
2022-10-05T10:12:42.830Z,98.70
2022-10-05T10:15:24.746Z,98.50
2022-10-05T10:18:19.530Z,98.40
2022-10-05T10:21:19.483Z,98.20
2022-10-05T10:24:00.371Z,97.40
2022-10-05T10:27:07.710Z,97.30
2022-10-05T10:29:55.307Z,97.00
2022-10-05T10:32:53.220Z,97.00
2022-10-05T10:35:34.301Z,96.90
2022-10-05T10:38:23.769Z,96.50
2022-10-05T10:41:29.075Z,96.40
2022-10-05T10:44:24.112Z,95.60
2022-10-05T10:47:38.697Z,95.60
2022-10-05T10:50:42.663Z,95.60
2022-10-05T10:53:31.333Z,94.80
2022-10-05T10:56:22.645Z,95.20
2022-10-05T10:58:59.079Z,95.20
2022-10-05T11:01:36.908Z,94.60
2022-10-05T11:04:16.034Z,94.00
2022-10-05T11:06:46.372Z,93.60
2022-10-05T11:09:28.913Z,94.00
2022-10-05T11:12:01.767Z,93.90
2022-10-05T11:14:54.617Z,93.80
2022-10-05T11:17:52.944Z,93.50
2022-10-05T11:20:47.100Z,93.00
2022-10-05T11:23:29.731Z,93.00
2022-10-05T11:26:19.159Z,92.10
2022-10-05T11:29:11.577Z,91.10
2022-10-05T11:32:10.119Z,90.80
2022-10-05T11:34:42.934Z,91.20
2022-10-05T11:37:32.149Z,90.70
2022-10-05T11:40:28.761Z,90.70
2022-10-05T11:43:49.830Z,90.20
2022-10-05T11:46:18.069Z,90.10
2022-10-05T11:49:23.483Z,89.20
2022-10-05T11:52:08.942Z,86.60
2022-10-05T11:55:11.377Z,85.90
2022-10-05T11:57:56.358Z,85.40
2022-10-05T12:00:32.770Z,84.20
2022-10-05T12:03:15.468Z,83.10
2022-10-05T12:06:21.958Z,82.20
2022-10-05T12:09:06.970Z,80.60
2022-10-05T12:11:42.958Z,79.60
2022-10-05T12:14:44.556Z,77.70
2022-10-05T12:17:32.353Z,77.90
2022-10-05T12:20:06.920Z,79.80
2022-10-05T12:22:50.721Z,77.90
2022-10-05T12:25:38.646Z,78.50
2022-10-05T12:28:12.159Z,79.60
2022-10-05T12:30:58.131Z,78.70
2022-10-05T12:33:28.375Z,76.80
2022-10-05T12:36:07.957Z,75.50
2022-10-05T12:38:57.876Z,75.40
2022-10-05T12:42:04.138Z,75.40
2022-10-05T12:44:52.154Z,75.90
2022-10-05T12:47:49.230Z,75.80
2022-10-05T12:50:24.243Z,75.00
2022-10-05T12:53:00.704Z,73.00
2022-10-05T12:55:48.932Z,74.40
2022-10-05T12:58:48.169Z,74.40
2022-10-05T13:01:38.279Z,74.00
2022-10-05T13:04:20.088Z,74.30
2022-10-05T13:06:52.783Z,73.70
2022-10-05T13:09:33.429Z,75.00
2022-10-05T13:12:28.564Z,74.60
2022-10-05T13:15:10.611Z,74.60
2022-10-05T13:18:18.781Z,73.20
2022-10-05T13:20:59.264Z,74.30
2022-10-05T13:23:44.834Z,74.00
2022-10-05T13:26:17.579Z,73.90
2022-10-05T13:28:52.818Z,75.00
2022-10-05T13:31:26.852Z,75.30
2022-10-05T13:34:18.334Z,74.50
2022-10-05T13:37:05.848Z,75.00
2022-10-05T13:39:42.114Z,76.20
2022-10-05T13:42:20.196Z,75.00
2022-10-05T13:45:28.942Z,75.90
2022-10-05T13:48:16.389Z,74.00
2022-10-05T13:51:10.974Z,73.40
2022-10-05T13:54:04.750Z,72.90
2022-10-05T13:56:42.592Z,73.20
2022-10-05T13:59:35.314Z,72.30
2022-10-05T14:02:08.581Z,71.80
2022-10-05T14:04:44.384Z,72.80
2022-10-05T14:07:21.710Z,73.60
2022-10-05T14:09:49.934Z,73.60
2022-10-05T14:12:22.365Z,73.40
2022-10-05T14:14:57.874Z,73.40
2022-10-05T14:17:33.490Z,73.20
2022-10-05T14:20:03.360Z,73.00
2022-10-05T14:22:30.258Z,72.20
2022-10-05T14:25:13.959Z,72.70
2022-10-05T14:28:24.100Z,72.70
2022-10-05T14:31:01.200Z,73.40
2022-10-05T14:33:33.854Z,74.30
2022-10-05T14:36:03.553Z,75.30
2022-10-05T14:38:49.979Z,76.00
2022-10-05T14:41:25.163Z,75.50
2022-10-05T14:50:16.088Z,75.10
2022-10-05T14:53:00.345Z,76.00
2022-10-05T14:55:37.272Z,75.50
2022-10-05T14:58:32.069Z,75.90
2022-10-05T15:01:19.688Z,75.90
2022-10-05T15:04:21.174Z,74.80
2022-10-05T15:07:04.197Z,74.40
2022-10-05T15:09:54.426Z,75.00
2022-10-05T15:12:38.285Z,75.90
2022-10-05T15:15:14.810Z,76.70
2022-10-05T15:17:59.398Z,78.10
2022-10-05T15:20:34.447Z,77.50
2022-10-05T15:23:19.927Z,76.70
2022-10-05T15:26:00.811Z,76.90
2022-10-05T15:28:34.088Z,76.90
2022-10-05T15:31:09.451Z,76.60
2022-10-05T15:33:40.717Z,76.00
2022-10-05T15:36:51.970Z,77.40
2022-10-05T15:39:26.978Z,77.60
2022-10-05T15:42:00.223Z,76.60
2022-10-05T15:44:48.977Z,76.20
2022-10-05T15:47:47.250Z,76.90
2022-10-05T15:50:26.503Z,75.50
2022-10-05T15:53:02.437Z,76.00
2022-10-05T15:55:55.575Z,77.00
2022-10-05T15:58:50.226Z,77.10
2022-10-05T16:01:32.084Z,79.00
2022-10-05T16:04:23.463Z,82.50
2022-10-05T16:07:14.698Z,83.90
2022-10-05T16:09:57.890Z,85.10
2022-10-05T16:12:46.699Z,86.20
2022-10-05T16:15:21.968Z,86.60
2022-10-05T16:17:48.773Z,86.90
2022-10-05T16:20:36.679Z,87.60
2022-10-05T16:23:09.170Z,87.70
2022-10-05T16:25:58.367Z,88.00
2022-10-05T16:28:50.610Z,88.70
2022-10-05T16:31:38.187Z,89.00
2022-10-05T16:34:12.552Z,89.00
2022-10-05T16:36:54.366Z,89.90
2022-10-05T16:39:56.609Z,90.10
2022-10-05T16:42:25.724Z,90.10
2022-10-05T16:45:26.252Z,90.10
2022-10-05T16:48:19.679Z,90.50
2022-10-05T16:51:07.796Z,90.50
2022-10-05T16:53:41.580Z,90.70
2022-10-05T16:56:17.344Z,90.50
2022-10-05T16:58:52.946Z,88.40
2022-10-05T17:02:07.906Z,87.70
2022-10-05T17:04:41.082Z,87.00
2022-10-05T17:07:20.334Z,86.20
2022-10-05T17:10:14.211Z,85.70
2022-10-05T17:12:46.865Z,85.90
2022-10-05T17:15:31.555Z,85.90
2022-10-05T17:18:23.797Z,86.30
2022-10-05T17:20:56.722Z,86.90
2022-10-05T17:23:48.590Z,86.40
2022-10-05T17:26:45.046Z,86.80
2022-10-05T17:29:33.779Z,87.00
2022-10-05T17:32:10.677Z,87.10
2022-10-05T17:35:04.133Z,87.20
2022-10-05T17:37:38.110Z,87.30
2022-10-05T17:40:32.056Z,87.30
2022-10-05T17:43:01.322Z,87.40
2022-10-05T17:45:34.164Z,87.70
2022-10-05T17:48:04.072Z,89.10
2022-10-05T17:50:58.437Z,90.30
2022-10-05T17:54:05.754Z,90.60
2022-10-05T17:56:53.614Z,90.90
2022-10-05T17:59:55.634Z,91.20
2022-10-05T18:02:26.710Z,91.50
2022-10-05T18:05:16.189Z,91.50
2022-10-05T18:07:48.099Z,91.50
2022-10-05T18:10:29.069Z,91.70
2022-10-05T18:12:58.872Z,91.50
2022-10-05T18:15:25.576Z,91.40
2022-10-05T18:18:20.484Z,91.50
2022-10-05T18:21:13.638Z,91.40
2022-10-05T18:23:59.247Z,91.60
2022-10-05T18:26:41.630Z,91.90
2022-10-05T18:29:40.313Z,91.60
2022-10-05T18:32:28.052Z,91.60
2022-10-05T18:35:13.115Z,91.40
2022-10-05T18:38:04.220Z,91.60
2022-10-05T18:40:48.410Z,91.50
2022-10-05T18:43:52.817Z,91.40
2022-10-05T18:46:45.515Z,91.60
2022-10-05T18:49:27.525Z,91.80
2022-10-05T18:52:05.678Z,91.60
2022-10-05T18:55:10.053Z,91.70
2022-10-05T18:58:11.213Z,91.80
2022-10-05T19:00:43.809Z,91.90
2022-10-05T19:03:28.104Z,91.70
2022-10-05T19:05:59.839Z,92.00
2022-10-05T19:08:32.839Z,92.00
2022-10-05T19:11:23.185Z,91.90
2022-10-05T19:14:24.749Z,91.90
2022-10-05T19:17:14.312Z,92.20
2022-10-05T19:19:43.987Z,92.20
2022-10-05T19:22:34.472Z,92.10
2022-10-05T19:25:09.952Z,92.10
2022-10-05T19:27:45.737Z,92.40
2022-10-05T19:30:23.570Z,92.30
2022-10-05T19:33:09.028Z,92.40
2022-10-05T19:36:10.700Z,92.60
2022-10-05T19:38:55.561Z,92.60
2022-10-05T19:41:29.358Z,92.40
2022-10-05T19:44:02.295Z,92.60
2022-10-05T19:46:40.609Z,92.30
2022-10-05T19:49:10.762Z,92.20
2022-10-05T19:51:49.809Z,92.10
2022-10-05T19:54:31.097Z,91.90
2022-10-05T19:57:05.821Z,92.20
2022-10-05T19:59:37.223Z,92.10
2022-10-05T20:02:04.575Z,92.30
2022-10-05T20:04:43.084Z,92.30
2022-10-05T20:07:23.295Z,92.20
2022-10-05T20:09:50.250Z,92.30
2022-10-05T20:12:21.372Z,92.20
2022-10-05T20:15:30.112Z,91.90
2022-10-05T20:18:32.517Z,92.40
2022-10-05T20:21:00.652Z,92.30
2022-10-05T20:23:30.385Z,92.20
2022-10-05T20:26:20.133Z,92.40
2022-10-05T20:28:50.357Z,92.30
2022-10-05T20:31:20.033Z,92.10
2022-10-05T20:33:49.065Z,92.40
2022-10-05T20:36:15.886Z,92.20
2022-10-05T20:38:42.979Z,92.20
2022-10-05T20:41:09.819Z,92.30
2022-10-05T20:43:40.762Z,92.40
2022-10-05T20:46:07.688Z,92.50
2022-10-05T20:48:37.320Z,92.80
2022-10-05T20:51:04.340Z,93.00
2022-10-05T20:53:31.140Z,92.90
2022-10-05T20:56:05.602Z,92.80
2022-10-05T20:58:32.282Z,93.50
2022-10-05T21:01:18.436Z,93.30
2022-10-05T21:03:49.613Z,93.40
2022-10-05T21:06:26.406Z,93.60
2022-10-05T21:08:53.086Z,93.50
2022-10-05T21:11:20.550Z,93.70
2022-10-05T21:13:47.422Z,93.60
2022-10-05T21:16:18.241Z,93.60
2022-10-05T21:18:47.848Z,93.60
2022-10-05T21:21:17.205Z,93.60
2022-10-05T21:23:45.223Z,93.70
2022-10-05T21:26:12.669Z,93.90
2022-10-05T21:28:40.374Z,94.00
2022-10-05T21:31:10.026Z,94.10
2022-10-05T21:33:36.888Z,94.00
2022-10-05T21:36:03.940Z,94.00
2022-10-05T21:38:32.937Z,93.90
2022-10-05T21:40:59.794Z,94.10
2022-10-05T21:43:26.981Z,94.10
2022-10-05T21:45:55.470Z,94.00
2022-10-05T21:48:23.296Z,94.10
2022-10-05T21:50:52.930Z,94.20
2022-10-05T21:53:24.507Z,94.40
2022-10-05T21:55:51.924Z,94.30
2022-10-05T21:58:20.581Z,94.40
2022-10-05T22:00:47.368Z,94.50
2022-10-05T22:03:16.723Z,94.60
2022-10-05T22:05:43.593Z,94.50
2022-10-05T22:08:31.405Z,94.70
2022-10-05T22:11:00.715Z,94.80
2022-10-05T22:13:39.349Z,94.80
2022-10-05T22:16:06.244Z,94.90
2022-10-05T22:18:33.002Z,95.10
2022-10-05T22:21:02.173Z,95.10
2022-10-05T22:23:28.885Z,95.60
2022-10-05T22:25:57.951Z,95.60
2022-10-05T22:28:30.820Z,95.20
2022-10-05T22:30:59.765Z,95.00
2022-10-05T22:33:26.474Z,95.20
2022-10-05T22:35:54.342Z,95.60
2022-10-05T22:38:21.119Z,96.00
2022-10-05T22:40:47.787Z,96.40
2022-10-05T22:43:14.438Z,97.30
2022-10-05T22:45:43.392Z,97.80
2022-10-05T22:48:10.212Z,98.80
2022-10-05T22:50:39.464Z,98.90
2022-10-05T22:53:06.332Z,98.60
2022-10-05T22:55:35.378Z,99.30
2022-10-05T22:58:02.084Z,99.10
2022-10-05T23:00:53.265Z,99.40
2022-10-05T23:03:16.098Z,99.50
2022-10-05T23:05:45.236Z,99.50
2022-10-05T23:08:11.998Z,99.20
2022-10-05T23:10:38.719Z,99.30
2022-10-05T23:13:06.259Z,99.30
2022-10-05T23:15:34.264Z,98.90
2022-10-05T23:18:01.011Z,99.30
2022-10-05T23:20:27.727Z,99.20
2022-10-05T23:22:58.688Z,99.20
2022-10-05T23:25:25.637Z,99.20
2022-10-05T23:27:52.298Z,99.30
2022-10-05T23:30:19.123Z,99.20
2022-10-05T23:32:45.846Z,99.50
2022-10-05T23:35:13.715Z,99.50
2022-10-05T23:37:42.448Z,99.20
2022-10-05T23:40:14.136Z,99.50
2022-10-05T23:42:43.390Z,99.90
2022-10-05T23:45:11.444Z,99.90
2022-10-05T23:47:38.930Z,99.90
2022-10-05T23:50:07.011Z,99.90
2022-10-05T23:52:37.712Z,99.90
2022-10-05T23:55:05.578Z,99.90
2022-10-05T23:57:32.628Z,99.90
